Strona główna
METAR-TAF:

METAR-TAF

Lotnisko :

Chatham-Kent Municipal Airport

Chatham-Kent, Ontario, Kanada

Szerokość geograficzna: 42-18-22N, Długość geograficzna: 82-04-54W, wysokość: 197 m

Aktualna obserwacja pogody

Raport powstał 55 minut temu, godzina 06:00 UTC
Wiatr 4 kt od zachód
Temperatura -9°C
Wilgotność 79%
Ciśnienie 1035 hPa
Widzialność: 14.5 km
bezchmurnie

METAR: CYCK 120600Z AUTO 26004KT 9SM CLR M09/M12 A3056 RMK SLP364

czas: 01:55 (06:55 UTC)


TAF: brakujący

Obserwacja i prognoza pogody dla ponad 4000 lotnisk (raport METAR i TAF).

Dostępne stacje oznaczono żółtymi i czerwonymi punktami na mapie.

Najedź kursorem aby zobaczyć nazwę stacji.

Kliknij aby zobaczyć obserwacje i prognozy pogody.

Aby zmienić mapę: kliknij na zielony przycisk z czarnym krzyżykiem, aby powiększyć; na zielony przycisk z myślnikiem, aby pomniejszyć; na zielone strzałki, aby przejść do map sąsiednich.


METAR-TAF: